Patuxent River Naval Air Station/Trapnell Field Aiport
KNHK : now visible

Airfield :











YOU CAN JOIN US ON...

 
LOGIN :

Register | Disclaimer

   EN    FR    IT 

 









Legend :    VFR   Marginal VFR   IFR   Intensive IFR   Very Intensive IFR
Visi :
Ceiling :
>= 8 km
>= 3000ft
5 to 8 km
1000 to 3000 ft
1500m to 5 km
500 to 1000 ft
800 to 1500m
200 to 500 ft
< 800m
< 200 ft
Symbols :   Thunderstorms  Fog  Heavy snow  Heavy precipitations  Wind > 20 kt






- Airport Elevation : 39 ft


KNHK - Patuxent River Naval Air Station/Trapnell Field Aiport

CURRENT METAR :
  • 270052Z 17004KT 8SM FEW045 FEW110 BKN300 28/25 A2991 RMK AO2 SLP127 CB DSNT W-NW T2 SET T02780250

EXPIRED METARs :
  • 262352Z 20003KT 8SM CLR 29/25 A2990 RMK AO2 SLP124 T02940250 10317 20294 58002
  • 262252Z 14003KT 8SM FEW045 FEW110 BKN300 30/26 A2990 RMK AO2 SLP125 T2 SET T03000256

TAF TAF KNHK
Valid from the 26 at 23:00 until the 27 at 23:00 UTC


2623/2723 14006KT 9999 VCTS FEW045CB SCT110 BKN300 QNH2985INS
TEMPO 2700/2703 VRB15G35KT 4800 TSRA BKN030CB OVC080
FM270300 VRB03KT 9999 NSW SCT030 SCT080 BKN300 QNH2991INS
BECMG 2716/2718 14007KT 9999 FEW040 FEW300 QNH2997INS AUTOMATED SENSOR METWATCH 2703 TIL 2708 T22/2711Z T33/2720Z FN20066
KZDC FIR / North America



MET'MAP, your aeronautical weather chart ! - Copyright ORBIFLY December 2007 - Disclaimer

ORBIFLY MET'MAP TEAM :

Programming & Development : Alexandra Zaïnal
Concept & original design : Baudouin d'Aumeries
Assistance for programming : Marc-Olivier Méhu
Technical & hardware support : Manuel Goepfert

Contact : metmap@orbifly.com




SOURCES & CREDITS :

   NOAA       Earth
Advisory